Time;durP1;ratioP1;P1;durP2;ratioP2;P2;SDS_P1;SDS_P2;PMS_P1;PMS_P2;Temp;Humidity;BMP_temperature;BMP_pressure;BME280_temperature;BME280_humidity;BME280_pressure;Samples;Min_cycle;Max_cycle;Signal;HPM_P1;HPM_P2
2022/07/13 00:00:30;;;;;;;;;;;;;;;20.38;38.23;99968.34;3154401;28;20035;-63
2022/07/13 00:02:02;;;;;;;;;;;;;;;20.36;38.18;99972.09;3154151;28;19977;-63
2022/07/13 00:03:33;;;;;;;;;;;;;;;20.33;38.31;99967.88;3154073;28;19946;-62
2022/07/13 00:05:06;;;;;;;;;;;;;;;20.33;38.24;99967.88;3154110;28;19986;-63
2022/07/13 00:06:37;;;;;;;;;;;;;;;20.34;38.23;99968.72;3153599;28;20052;-65
2022/07/13 00:08:09;;;;;;;;;;;;;;;20.33;38.06;99972.34;3154296;28;19928;-64
2022/07/13 00:09:40;;;;;;;;;;;;;;;20.31;38.17;99961.03;3154316;28;20004;-63
2022/07/13 00:11:12;;;;;;;;;;;;;;;20.30;38.08;99967.31;3154143;28;19936;-62
2022/07/13 00:12:45;;;;;;;;;;;;;;;20.27;38.33;99964.91;3153973;28;19928;-63
2022/07/13 00:14:17;;;;;;;;;;;;;;;20.23;38.39;99966.94;3153984;28;20324;-63
2022/07/13 00:15:48;;;;;;;;;;;;;;;20.20;38.48;99968.06;3160581;28;19934;-62
2022/07/13 00:17:19;;;;;;;;;;;;;;;20.17;38.55;99970.09;3154010;28;20038;-62
2022/07/13 00:18:51;;;;;;;;;;;;;;;20.13;38.62;99966.88;3153916;28;20317;-62
2022/07/13 00:20:22;;;;;;;;;;;;;;;20.09;38.56;99967.28;3154097;28;19963;-62
2022/07/13 00:21:54;;;;;;;;;;;;;;;20.06;38.90;99967.53;3153442;28;19939;-62
2022/07/13 00:23:26;;;;;;;;;;;;;;;20.04;39.00;99972.09;3153919;28;19928;-62
2022/07/13 00:24:58;;;;;;;;;;;;;;;20.01;38.71;99973.19;3154115;28;19932;-63
2022/07/13 00:26:29;;;;;;;;;;;;;;;20.00;38.88;99977.63;3156812;28;20379;-63
2022/07/13 00:28:02;;;;;;;;;;;;;;;19.98;38.91;99976.91;3154061;28;19934;-63
2022/07/13 00:29:34;;;;;;;;;;;;;;;19.98;38.93;99976.91;3154110;28;20562;-63
2022/07/13 00:31:06;;;;;;;;;;;;;;;19.98;38.80;99974.25;3154255;28;19928;-62
2022/07/13 00:32:36;;;;;;;;;;;;;;;19.95;39.07;99977.16;3153935;28;20466;-63
2022/07/13 00:34:08;;;;;;;;;;;;;;;19.94;38.88;99980.78;3154053;28;19978;-63
2022/07/13 00:35:39;;;;;;;;;;;;;;;19.92;39.06;99981.84;3154074;28;19928;-63
2022/07/13 00:37:11;;;;;;;;;;;;;;;19.90;39.09;99974.03;3153849;28;19932;-63
2022/07/13 00:38:43;;;;;;;;;;;;;;;19.89;38.96;99977.66;3157623;28;20023;-63
2022/07/13 00:40:14;;;;;;;;;;;;;;;19.91;39.07;99977.53;3157571;28;20397;-63
2022/07/13 00:41:46;;;;;;;;;;;;;;;19.92;39.02;99985.34;3153996;28;19939;-63
2022/07/13 00:43:20;;;;;;;;;;;;;;;19.92;39.20;99974.75;3155009;28;19971;-63
2022/07/13 00:44:51;;;;;;;;;;;;;;;19.93;39.04;99975.59;3156899;28;19932;-63
2022/07/13 00:46:23;;;;;;;;;;;;;;;19.89;39.08;99975.00;3155141;28;19928;-63
2022/07/13 00:47:55;;;;;;;;;;;;;;;19.88;39.17;99976.00;3153913;28;19931;-63
2022/07/13 00:49:27;;;;;;;;;;;;;;;19.88;39.38;99976.00;3153948;28;19974;-63
2022/07/13 00:50:58;;;;;;;;;;;;;;;19.87;39.24;99970.81;3154134;28;19928;-62
2022/07/13 00:52:31;;;;;;;;;;;;;;;19.87;39.02;99970.81;3153626;28;20541;-63
2022/07/13 00:54:03;;;;;;;;;;;;;;;19.87;39.11;99969.00;3153617;28;19935;-63
2022/07/13 00:55:35;;;;;;;;;;;;;;;19.88;39.31;99969.88;3153623;28;20472;-63
2022/07/13 00:57:07;;;;;;;;;;;;;;;19.86;39.34;99964.69;3153399;28;19985;-63
2022/07/13 00:58:41;;;;;;;;;;;;;;;19.84;39.30;99971.91;3153560;28;19935;-63
2022/07/13 01:00:14;;;;;;;;;;;;;;;19.85;39.22;99964.84;3153455;28;19972;-63
2022/07/13 01:01:46;;;;;;;;;;;;;;;19.85;39.27;99959.56;3153837;28;19928;-63
2022/07/13 01:03:17;;;;;;;;;;;;;;;19.82;39.05;99963.28;3153438;28;20017;-63
2022/07/13 01:04:49;;;;;;;;;;;;;;;19.82;39.22;99962.41;3153253;28;20329;-63
2022/07/13 01:06:21;;;;;;;;;;;;;;;19.84;39.32;99963.97;3153489;28;19928;-63
2022/07/13 01:07:52;;;;;;;;;;;;;;;19.84;39.26;99966.59;3153617;28;20028;-64
2022/07/13 01:09:24;;;;;;;;;;;;;;;19.84;39.15;99963.97;3153667;28;19994;-64
2022/07/13 01:10:57;;;;;;;;;;;;;;;19.82;39.24;99967.69;3153164;28;19928;-64
2022/07/13 01:12:29;;;;;;;;;;;;;;;19.81;39.42;99950.16;3153288;28;20435;-64
2022/07/13 01:14:02;;;;;;;;;;;;;;;19.78;39.43;99962.66;3153665;28;19932;-64
2022/07/13 01:15:35;;;;;;;;;;;;;;;19.80;39.45;99964.34;3153571;28;20018;-64
2022/07/13 01:17:05;;;;;;;;;;;;;;;19.78;39.56;99967.09;3153342;28;19934;-63
2022/07/13 01:18:38;;;;;;;;;;;;;;;19.77;39.34;99966.28;3152337;28;19963;-63
2022/07/13 01:20:09;;;;;;;;;;;;;;;19.78;39.41;99967.09;3153365;28;20374;-63
2022/07/13 01:21:41;;;;;;;;;;;;;;;19.76;39.52;99971.69;3156730;28;19932;-63
2022/07/13 01:23:15;;;;;;;;;;;;;;;19.73;39.58;99969.31;3149570;28;19935;-62
2022/07/13 01:24:47;;;;;;;;;;;;;;;19.70;39.86;99966.88;3153362;28;20006;-64
2022/07/13 01:26:18;;;;;;;;;;;;;;;19.69;39.82;99967.84;3153057;28;19938;-63
2022/07/13 01:27:50;;;;;;;;;;;;;;;19.61;40.28;99960.53;3153452;28;20409;-63
2022/07/13 01:29:21;;;;;;;;;;;;;;;19.57;40.47;99952.97;3153022;28;20031;-62
2022/07/13 01:30:52;;;;;;;;;;;;;;;19.52;40.48;99966.53;3153430;28;19928;-62
2022/07/13 01:32:23;;;;;;;;;;;;;;;19.49;40.74;99959.72;3152813;28;20474;-62
2022/07/13 01:33:54;;;;;;;;;;;;;;;19.46;40.68;99952.03;3151805;28;19943;-62
2022/07/13 01:35:26;;;;;;;;;;;;;;;19.42;40.85;99952.38;3152854;28;19959;-62
2022/07/13 01:36:58;;;;;;;;;;;;;;;19.37;41.04;99952.75;3153082;28;20105;-61
2022/07/13 01:38:31;;;;;;;;;;;;;;;19.38;40.82;99957.06;3153225;28;19927;-62
2022/07/13 01:40:03;;;;;;;;;;;;;;;19.38;40.79;99954.44;3152879;28;20332;-62
2022/07/13 01:41:35;;;;;;;;;;;;;;;19.39;40.96;99952.63;3153333;28;19932;-62
2022/07/13 01:43:06;;;;;;;;;;;;;;;19.35;41.00;99949.41;3153246;28;20365;-62
2022/07/13 01:44:38;;;;;;;;;;;;;;;19.31;41.21;99951.44;3157491;28;19932;-62
2022/07/13 01:46:10;;;;;;;;;;;;;;;19.26;41.20;99942.22;3153236;28;20389;-62
2022/07/13 01:47:43;;;;;;;;;;;;;;;19.22;41.34;99953.97;3153516;28;20400;-62
2022/07/13 01:49:14;;;;;;;;;;;;;;;19.17;41.53;99953.50;3153048;28;19928;-62
2022/07/13 01:50:46;;;;;;;;;;;;;;;19.14;41.46;99953.72;3153564;28;19928;-62
2022/07/13 01:52:18;;;;;;;;;;;;;;;19.10;41.47;99955.75;3152818;28;19935;-63
2022/07/13 01:53:51;;;;;;;;;;;;;;;19.08;41.44;99957.69;3153330;28;20001;-63
2022/07/13 01:55:22;;;;;;;;;;;;;;;19.11;41.52;99944.25;3152849;28;20066;-63
2022/07/13 01:56:53;;;;;;;;;;;;;;;19.11;41.40;99944.25;3152914;28;19931;-62
2022/07/13 01:58:26;;;;;;;;;;;;;;;19.10;41.46;99951.31;3153152;28;20581;-62
2022/07/13 01:59:58;;;;;;;;;;;;;;;19.12;41.38;99950.38;3153095;28;20504;-63
2022/07/13 02:01:30;;;;;;;;;;;;;;;19.09;41.43;99954.91;3152373;28;20005;-63
2022/07/13 02:03:03;;;;;;;;;;;;;;;19.10;41.47;99955.75;3154665;28;20014;-62
2022/07/13 02:04:36;;;;;;;;;;;;;;;19.10;41.38;99950.47;3153007;28;19935;-63
2022/07/13 02:06:06;;;;;;;;;;;;;;;19.10;41.35;99951.31;3152837;28;19928;-62
2022/07/13 02:07:38;;;;;;;;;;;;;;;19.13;41.15;99955.50;3152945;28;19928;-63
2022/07/13 02:09:11;;;;;;;;;;;;;;;19.16;41.14;99954.44;3152915;28;20046;-62
2022/07/13 02:10:43;;;;;;;;;;;;;;;19.18;40.93;99958.66;3152931;28;19947;-62
2022/07/13 02:12:15;;;;;;;;;;;;;;;19.20;41.02;99956.72;3152745;28;19927;-63
2022/07/13 02:13:47;;;;;;;;;;;;;;;19.18;41.17;99952.53;3152983;28;20011;-63
2022/07/13 02:15:18;;;;;;;;;;;;;;;19.14;41.29;99954.56;3152178;28;19932;-63
2022/07/13 02:16:50;;;;;;;;;;;;;;;19.14;41.31;99953.72;3152974;28;20486;-62
2022/07/13 02:18:22;;;;;;;;;;;;;;;19.15;41.32;99947.50;3155514;28;19928;-62
2022/07/13 02:19:53;;;;;;;;;;;;;;;19.15;41.13;99950.13;3152949;28;19993;-62
2022/07/13 02:21:25;;;;;;;;;;;;;;;19.14;41.22;99956.34;3152664;28;19985;-62
2022/07/13 02:22:56;;;;;;;;;;;;;;;19.13;41.13;99950.25;3152800;28;19971;-62
2022/07/13 02:24:30;;;;;;;;;;;;;;;19.04;41.27;99943.88;3152728;28;20452;-62
2022/07/13 02:26:01;;;;;;;;;;;;;;;19.05;41.34;99948.22;3152909;28;19932;-62
2022/07/13 02:27:33;;;;;;;;;;;;;;;19.09;41.19;99956.72;3152703;28;19985;-63
2022/07/13 02:29:05;;;;;;;;;;;;;;;19.03;41.27;99944.00;3153045;28;20405;-62
2022/07/13 02:30:36;;;;;;;;;;;;;;;19.03;41.44;99944.00;3155025;28;19989;-63
2022/07/13 02:32:08;;;;;;;;;;;;;;;19.02;41.46;99948.47;3155215;28;20069;-63
2022/07/13 02:33:40;;;;;;;;;;;;;;;19.00;41.47;99955.66;3155269;28;19928;-63
2022/07/13 02:35:12;;;;;;;;;;;;;;;19.01;41.40;99953.84;3154980;28;19989;-62
2022/07/13 02:36:43;;;;;;;;;;;;;;;18.99;41.32;99953.97;3155107;28;19936;-61
2022/07/13 02:38:14;;;;;;;;;;;;;;;19.00;41.41;99957.44;3155103;28;19981;-62
2022/07/13 02:39:47;;;;;;;;;;;;;;;19.01;41.41;99953.84;3155492;28;20018;-62
2022/07/13 02:41:19;;;;;;;;;;;;;;;18.96;41.51;99959.50;3154862;28;19931;-62
2022/07/13 02:42:50;;;;;;;;;;;;;;;18.92;41.54;99951.91;3155212;28;19935;-62
2022/07/13 02:44:22;;;;;;;;;;;;;;;18.88;41.88;99950.50;3160225;28;20339;-62
2022/07/13 02:45:53;;;;;;;;;;;;;;;18.85;41.77;99947.13;3155905;28;20397;-62
2022/07/13 02:47:24;;;;;;;;;;;;;;;18.83;41.72;99950.84;3155071;28;19932;-62
2022/07/13 02:48:56;;;;;;;;;;;;;;;18.79;41.88;99947.59;3154885;28;19928;-62
2022/07/13 02:50:26;;;;;;;;;;;;;;;18.78;41.90;99945.94;3155256;28;19928;-62
2022/07/13 02:51:58;;;;;;;;;;;;;;;18.78;41.93;99955.63;3155121;28;19988;-62
2022/07/13 02:53:30;;;;;;;;;;;;;;;18.74;41.99;99948.91;3154999;28;20038;-62
2022/07/13 02:55:03;;;;;;;;;;;;;;;18.76;41.84;99953.09;3154788;28;19928;-62
2022/07/13 02:56:35;;;;;;;;;;;;;;;18.74;42.08;99960.28;3155037;28;20399;-62
2022/07/13 02:58:06;;;;;;;;;;;;;;;18.74;41.70;99956.81;3155069;28;19993;-62
2022/07/13 02:59:37;;;;;;;;;;;;;;;18.73;41.77;99958.63;3154904;28;20008;-63
2022/07/13 03:01:09;;;;;;;;;;;;;;;18.76;41.84;99958.38;3154793;28;19932;-62
2022/07/13 03:02:40;;;;;;;;;;;;;;;18.78;41.74;99958.25;3154797;28;19981;-62
2022/07/13 03:04:12;;;;;;;;;;;;;;;18.78;41.75;99952.97;3155115;28;19932;-62
2022/07/13 03:05:43;;;;;;;;;;;;;;;18.77;41.79;99948.66;3154976;28;19936;-62
2022/07/13 03:07:15;;;;;;;;;;;;;;;18.77;41.88;99956.56;3154669;28;19936;-62
2022/07/13 03:08:46;;;;;;;;;;;;;;;18.74;41.86;99951.53;3154936;28;19939;-63
2022/07/13 03:10:20;;;;;;;;;;;;;;;18.72;42.04;99946.34;3154325;28;19928;-63
2022/07/13 03:11:50;;;;;;;;;;;;;;;18.71;42.05;99949.09;3155093;28;19936;-63
2022/07/13 03:13:22;;;;;;;;;;;;;;;18.71;41.93;99943.84;3154515;28;19932;-62
2022/07/13 03:14:54;;;;;;;;;;;;;;;18.67;42.32;99948.50;3158195;28;19928;-63
2022/07/13 03:16:25;;;;;;;;;;;;;;;18.67;41.98;99942.41;3154616;28;20308;-63
2022/07/13 03:17:57;;;;;;;;;;;;;;;18.67;42.18;99942.41;3154803;28;20490;-63
2022/07/13 03:19:29;;;;;;;;;;;;;;;18.69;42.11;99943.94;3154887;28;19971;-63
2022/07/13 03:21:01;;;;;;;;;;;;;;;18.71;41.89;99947.31;3154806;28;20172;-62
2022/07/13 03:22:32;;;;;;;;;;;;;;;18.74;42.11;99951.53;3154450;28;19932;-62
2022/07/13 03:24:03;;;;;;;;;;;;;;;18.73;42.01;99953.34;3154621;28;19932;-63
2022/07/13 03:25:36;;;;;;;;;;;;;;;18.72;41.91;99948.13;3155148;28;20090;-63
2022/07/13 03:27:07;;;;;;;;;;;;;;;18.76;41.92;99952.28;3142477;28;19928;-63
2022/07/13 03:28:38;;;;;;;;;;;;;;;18.76;42.16;99952.28;3153457;28;20068;-63
2022/07/13 03:30:10;;;;;;;;;;;;;;;18.75;42.25;99961.13;3154887;28;19934;-63
2022/07/13 03:31:42;;;;;;;;;;;;;;;18.75;42.18;99956.72;3154252;28;20379;-63
2022/07/13 03:33:13;;;;;;;;;;;;;;;18.76;42.17;99965.47;3154388;28;19928;-62
2022/07/13 03:34:45;;;;;;;;;;;;;;;18.74;42.27;99960.28;3157315;28;19934;-63
2022/07/13 03:36:17;;;;;;;;;;;;;;;18.74;42.00;99955.00;3163024;28;19932;-62
2022/07/13 03:37:48;;;;;;;;;;;;;;;18.74;42.15;99949.75;3154641;28;19928;-62
2022/07/13 03:39:20;;;;;;;;;;;;;;;18.73;41.97;99952.47;3154795;28;19981;-63
2022/07/13 03:40:53;;;;;;;;;;;;;;;18.73;42.09;99955.97;3153577;28;19932;-63
2022/07/13 03:42:25;;;;;;;;;;;;;;;18.70;42.01;99952.72;3154647;28;20072;-62
2022/07/13 03:43:56;;;;;;;;;;;;;;;18.71;41.98;99949.09;3156297;28;20006;-63
2022/07/13 03:45:28;;;;;;;;;;;;;;;18.71;41.93;99955.22;3157281;28;20023;-63
2022/07/13 03:47:00;;;;;;;;;;;;;;;18.72;41.79;99956.88;3154574;28;19928;-63
2022/07/13 03:48:31;;;;;;;;;;;;;;;18.73;41.95;99958.63;3154523;28;19932;-63
2022/07/13 03:50:03;;;;;;;;;;;;;;;18.73;41.98;99957.75;3154496;28;20456;-63
2022/07/13 03:51:36;;;;;;;;;;;;;;;18.75;41.87;99959.34;3154753;28;20002;-63
2022/07/13 03:53:08;;;;;;;;;;;;;;;18.76;41.90;99963.66;3154551;28;19928;-63
2022/07/13 03:54:39;;;;;;;;;;;;;;;18.76;41.98;99955.75;3154399;28;20404;-63
2022/07/13 03:56:12;;;;;;;;;;;;;;;18.76;41.90;99962.81;3154434;28;20173;-62
2022/07/13 03:57:44;;;;;;;;;;;;;;;18.79;41.79;99955.50;3154437;28;19978;-63
2022/07/13 03:59:16;;;;;;;;;;;;;;;18.82;41.84;99959.72;3154137;28;19935;-63
2022/07/13 04:01:03;;;;;;;;;;;;;;;18.82;41.88;99959.72;3155186;28;19927;-63
2022/07/13 04:02:34;;;;;;;;;;;;;;;18.84;42.08;99960.41;3154006;28;20321;-62
2022/07/13 04:04:06;;;;;;;;;;;;;;;18.84;42.04;99966.56;3154304;28;20107;-62
2022/07/13 04:05:37;;;;;;;;;;;;;;;18.84;42.16;99961.28;3154435;28;19977;-63
2022/07/13 04:07:09;;;;;;;;;;;;;;;18.84;42.33;99960.41;3154098;28;19978;-63
2022/07/13 04:08:41;;;;;;;;;;;;;;;18.85;42.42;99962.94;3154315;28;20027;-63
2022/07/13 04:10:13;;;;;;;;;;;;;;;18.83;42.50;99958.75;3155722;28;19943;-63
2022/07/13 04:11:48;;;;;;;;;;;;;;;18.80;42.45;99959.81;3154202;28;19957;-63
2022/07/13 04:13:19;;;;;;;;;;;;;;;18.83;42.31;99964.03;3154310;28;19932;-62
2022/07/13 04:14:50;;;;;;;;;;;;;;;18.80;42.39;99958.97;3153777;28;19932;-62
2022/07/13 04:16:21;;;;;;;;;;;;;;;18.80;42.42;99959.81;3154075;28;20603;-62
2022/07/13 04:17:53;;;;;;;;;;;;;;;18.83;42.19;99958.75;3154095;28;19935;-62
2022/07/13 04:19:25;;;;;;;;;;;;;;;18.86;42.20;99953.22;3153960;28;19935;-62
2022/07/13 04:20:56;;;;;;;;;;;;;;;18.89;42.15;99960.06;3154052;28;20399;-62
2022/07/13 04:22:27;;;;;;;;;;;;;;;18.91;41.91;99955.53;3153762;28;20177;-63
2022/07/13 04:23:59;;;;;;;;;;;;;;;18.94;42.11;99965.84;3154364;28;19928;-62
2022/07/13 04:25:30;;;;;;;;;;;;;;;18.99;41.92;99968.94;3154159;28;20660;-62
2022/07/13 04:27:04;;;;;;;;;;;;;;;19.02;41.88;99960.81;3153912;28;20005;-62
2022/07/13 04:28:34;;;;;;;;;;;;;;;19.06;41.64;99965.72;3153758;28;20386;-62
2022/07/13 04:30:06;;;;;;;;;;;;;;;19.08;41.36;99962.97;3153923;28;20073;-63
2022/07/13 04:31:38;;;;;;;;;;;;;;;19.12;41.62;99961.78;3153718;28;19979;-62
2022/07/13 04:33:10;;;;;;;;;;;;;;;19.15;41.30;99958.88;3153535;28;19928;-62
2022/07/13 04:34:40;;;;;;;;;;;;;;;19.17;41.19;99956.97;3153640;28;20719;-62
2022/07/13 04:36:12;;;;;;;;;;;;;;;19.21;41.20;99962.84;3153805;28;19975;-62
2022/07/13 04:37:44;;;;;;;;;;;;;;;19.25;41.10;99965.09;3153977;28;19931;-63
2022/07/13 04:39:15;;;;;;;;;;;;;;;19.27;40.87;99965.00;3153565;28;20011;-62
2022/07/13 04:40:47;;;;;;;;;;;;;;;19.31;40.86;99975.22;3153958;28;20180;-62
2022/07/13 04:42:20;;;;;;;;;;;;;;;19.35;40.83;99964.41;3153835;28;20470;-62
2022/07/13 04:43:52;;;;;;;;;;;;;;;19.38;40.81;99966.81;3154466;28;19928;-62
2022/07/13 04:45:24;;;;;;;;;;;;;;;19.44;40.70;99966.31;3156989;28;19936;-63
2022/07/13 04:46:54;;;;;;;;;;;;;;;19.49;40.66;99965.00;3153580;28;20002;-63
2022/07/13 04:48:26;;;;;;;;;;;;;;;19.52;40.54;99966.53;3153517;28;19944;-62
2022/07/13 04:49:58;;;;;;;;;;;;;;;19.53;40.68;99966.41;3153574;28;19935;-63
2022/07/13 04:51:29;;;;;;;;;;;;;;;19.55;40.39;99968.91;3153712;28;20403;-62
2022/07/13 04:53:01;;;;;;;;;;;;;;;19.59;40.30;99967.72;3153729;28;20076;-62
2022/07/13 04:54:33;;;;;;;;;;;;;;;19.62;40.33;99972.78;3153405;28;20423;-62
2022/07/13 04:56:04;;;;;;;;;;;;;;;19.69;40.21;99978.44;3153162;28;19928;-63
2022/07/13 04:57:38;;;;;;;;;;;;;;;19.73;40.18;99970.13;3153574;28;19928;-62
2022/07/13 04:59:09;;;;;;;;;;;;;;;19.79;40.06;99971.44;3153424;28;20180;-63
2022/07/13 05:00:41;;;;;;;;;;;;;;;19.82;40.09;99967.69;3153341;28;19950;-62
2022/07/13 05:02:12;;;;;;;;;;;;;;;19.87;39.78;99979.56;3153494;28;19932;-63
2022/07/13 05:03:44;;;;;;;;;;;;;;;19.93;39.82;99975.59;3153165;28;20397;-60
2022/07/13 05:05:15;;;;;;;;;;;;;;;19.98;39.68;99976.06;3153625;28;19928;-63
2022/07/13 05:06:48;;;;;;;;;;;;;;;20.03;39.90;99976.53;3156499;28;19927;-63
2022/07/13 05:08:19;;;;;;;;;;;;;;;20.06;39.50;99978.09;3153558;28;19939;-64
2022/07/13 05:09:51;;;;;;;;;;;;;;;20.09;39.30;99973.41;3153314;28;19993;-63
2022/07/13 05:11:23;;;;;;;;;;;;;;;20.13;39.22;99969.53;3153339;28;20723;-62
2022/07/13 05:12:56;;;;;;;;;;;;;;;20.17;39.16;99976.25;3153322;28;19928;-62
2022/07/13 05:14:27;;;;;;;;;;;;;;;20.23;38.94;99972.25;3153193;28;19928;-62
2022/07/13 05:15:58;;;;;;;;;;;;;;;20.26;38.97;99971.16;3153380;28;19928;-62
2022/07/13 05:17:30;;;;;;;;;;;;;;;20.29;39.00;99973.53;3153634;28;19935;-64
2022/07/13 05:19:02;;;;;;;;;;;;;;;20.32;38.68;99983.84;3153212;28;20457;-63
2022/07/13 05:20:34;;;;;;;;;;;;;;;20.34;38.34;99977.47;3153478;28;19932;-64
2022/07/13 05:22:06;;;;;;;;;;;;;;;20.37;38.54;99977.22;3153691;28;19931;-63
2022/07/13 05:23:38;;;;;;;;;;;;;;;20.42;38.53;99974.22;3153026;28;19928;-63
2022/07/13 05:25:10;;;;;;;;;;;;;;;20.46;38.49;99976.47;3153243;28;20421;-64
2022/07/13 05:26:41;;;;;;;;;;;;;;;20.50;38.22;99973.56;3152852;28;19928;-62
2022/07/13 05:28:15;;;;;;;;;;;;;;;20.53;38.04;99981.25;3153321;28;19932;-62
2022/07/13 05:29:46;;;;;;;;;;;;;;;20.55;37.95;99980.16;3153199;28;19928;-67
2022/07/13 05:31:18;;;;;;;;;;;;;;;20.60;37.85;99977.16;3152952;28;19928;-66
2022/07/13 05:32:49;;;;;;;;;;;;;;;20.65;38.12;99982.91;3152843;28;19950;-65
2022/07/13 05:34:21;;;;;;;;;;;;;;;20.71;37.89;99982.38;3152602;28;19940;-64
2022/07/13 05:35:53;;;;;;;;;;;;;;;20.75;37.96;99986.44;3152542;28;19931;-63
2022/07/13 05:37:24;;;;;;;;;;;;;;;20.80;37.72;99980.75;3152838;28;19932;-63
2022/07/13 05:38:56;;;;;;;;;;;;;;;20.82;37.73;99990.25;3152649;28;19928;-63
2022/07/13 05:40:28;;;;;;;;;;;;;;;20.85;37.87;99987.34;3151775;28;19935;-64
2022/07/13 05:41:59;;;;;;;;;;;;;;;20.91;37.82;99988.59;3152818;28;19935;-65
2022/07/13 05:43:32;;;;;;;;;;;;;;;20.95;37.78;99989.22;3152918;28;19928;-64
2022/07/13 05:45:04;;;;;;;;;;;;;;;21.00;38.02;99982.56;3159684;28;19927;-64
2022/07/13 05:46:36;;;;;;;;;;;;;;;21.03;37.84;99982.28;3152725;28;19939;-63
2022/07/13 05:48:08;;;;;;;;;;;;;;;21.08;37.98;99974.75;3153249;28;19928;-64
2022/07/13 05:49:39;;;;;;;;;;;;;;;21.12;37.78;99983.31;3152987;28;20322;-63
2022/07/13 05:51:11;;;;;;;;;;;;;;;21.16;37.88;99975.94;3153138;28;19928;-63
2022/07/13 05:52:43;;;;;;;;;;;;;;;21.19;37.90;99978.31;3152810;28;20377;-62
2022/07/13 05:54:15;;;;;;;;;;;;;;;21.25;37.92;99980.41;3152914;28;20504;-64
2022/07/13 05:55:46;;;;;;;;;;;;;;;21.28;37.90;99975.69;3152537;28;20353;-62
2022/07/13 05:57:18;;;;;;;;;;;;;;;21.30;37.67;99979.06;3152700;28;19932;-62
2022/07/13 05:58:51;;;;;;;;;;;;;;;21.33;37.67;99973.50;3152178;28;20482;-63
2022/07/13 06:00:23;;;;;;;;;;;;;;;21.35;37.36;99974.19;3152725;28;19928;-65
2022/07/13 06:01:54;;;;;;;;;;;;;;;21.40;37.55;99973.81;3152802;28;19928;-62
2022/07/13 06:03:26;;;;;;;;;;;;;;;21.44;37.47;99975.22;3155966;28;19928;-63
2022/07/13 06:04:58;;;;;;;;;;;;;;;21.50;37.43;99972.03;3154443;28;19928;-66
2022/07/13 06:06:29;;;;;;;;;;;;;;;21.57;37.54;99970.53;3153201;28;19932;-66
2022/07/13 06:08:01;;;;;;;;;;;;;;;21.67;37.28;99970.53;3153285;28;19932;-64
2022/07/13 06:09:33;;;;;;;;;;;;;;;21.75;37.06;99970.69;3152932;28;19927;-65
2022/07/13 06:11:04;;;;;;;;;;;;;;;21.82;36.76;99970.97;3152494;28;19964;-66
2022/07/13 06:12:36;;;;;;;;;;;;;;;21.84;36.58;99963.72;3152555;28;19927;-62
2022/07/13 06:14:09;;;;;;;;;;;;;;;21.90;36.45;99954.41;3152727;28;19928;-63
2022/07/13 06:15:41;;;;;;;;;;;;;;;21.95;36.35;99955.66;3152699;28;19974;-61
2022/07/13 06:17:13;;;;;;;;;;;;;;;22.00;36.27;99960.53;3152488;28;20031;-64
2022/07/13 06:18:45;;;;;;;;;;;;;;;22.05;36.34;99953.00;3152002;28;20430;-63
2022/07/13 06:20:39;;;;;;;;;;;;;;;22.11;36.05;99956.91;3152310;28;20165;-65
2022/07/13 06:22:11;;;;;;;;;;;;;;;22.19;36.06;99955.28;3149916;28;19932;-67
2022/07/13 06:23:42;;;;;;;;;;;;;;;22.26;36.32;99959.03;3145039;28;20373;-63
2022/07/13 06:25:14;;;;;;;;;;;;;;;22.34;35.95;99958.34;3145329;28;19932;-65
2022/07/13 06:26:46;;;;;;;;;;;;;;;22.37;35.98;99962.53;3152670;28;20443;-66
2022/07/13 06:28:17;;;;;;;;;;;;;;;22.41;36.08;99962.09;3142449;28;19928;-66
2022/07/13 06:29:50;;;;;;;;;;;;;;;22.47;35.93;99968.66;3152585;28;19928;-64
2022/07/13 06:31:22;;;;;;;;;;;;;;;22.52;35.75;99969.06;3152736;28;19928;-64
2022/07/13 06:32:56;;;;;;;;;;;;;;;22.57;35.68;99963.31;3153108;28;20478;-67
2022/07/13 06:34:28;;;;;;;;;;;;;;;22.64;35.61;99967.09;3150327;28;19932;-65
2022/07/13 06:36:00;;;;;;;;;;;;;;;22.72;35.46;99967.22;3151322;28;20389;-64
2022/07/13 06:37:32;;;;;;;;;;;;;;;22.75;35.21;99964.28;3152464;28;19928;-65
2022/07/13 06:39:03;;;;;;;;;;;;;;;22.83;35.39;99955.56;3152312;28;20034;-68
2022/07/13 06:40:35;;;;;;;;;;;;;;;22.92;35.38;99962.69;3152443;28;19928;-66
2022/07/13 06:42:09;;;;;;;;;;;;;;;22.99;35.21;99963.81;3152802;28;19928;-66
2022/07/13 06:43:40;;;;;;;;;;;;;;;23.05;35.01;99957.09;3152710;28;19928;-65
2022/07/13 06:45:13;;;;;;;;;;;;;;;23.11;34.97;99957.34;3158663;28;20345;-64
2022/07/13 06:46:45;;;;;;;;;;;;;;;23.16;35.05;99957.75;3152620;28;19928;-64
2022/07/13 06:48:17;;;;;;;;;;;;;;;23.25;35.03;99955.16;3152797;28;19928;-64
2022/07/13 06:49:49;;;;;;;;;;;;;;;23.30;35.10;99951.09;3153098;28;19971;-64
2022/07/13 06:51:20;;;;;;;;;;;;;;;23.35;34.30;99948.84;3152622;28;20309;-65
2022/07/13 06:52:52;;;;;;;;;;;;;;;23.43;34.40;99949.94;3152646;28;19928;-65
2022/07/13 06:54:24;;;;;;;;;;;;;;;23.50;34.48;99957.16;3152557;28;20004;-65
2022/07/13 06:55:55;;;;;;;;;;;;;;;23.55;34.07;99959.38;3152264;28;19971;-63
2022/07/13 06:57:27;;;;;;;;;;;;;;;23.58;33.57;99949.28;3152648;28;19989;-65
2022/07/13 06:58:58;;;;;;;;;;;;;;;23.60;33.88;99955.28;3154115;28;19982;-66
2022/07/13 07:00:32;;;;;;;;;;;;;;;23.65;34.02;99951.31;3154338;28;19993;-64
2022/07/13 07:02:02;;;;;;;;;;;;;;;23.69;33.93;99945.53;3152692;28;19939;-66
2022/07/13 07:03:34;;;;;;;;;;;;;;;23.72;33.98;99947.97;3152364;28;19928;-65
2022/07/13 07:05:09;;;;;;;;;;;;;;;23.76;33.66;99949.31;3152383;28;19935;-64
2022/07/13 07:06:41;;;;;;;;;;;;;;;23.73;33.67;99946.13;3152527;28;19980;-65
2022/07/13 07:08:13;;;;;;;;;;;;;;;23.73;33.73;99946.13;3152787;28;19985;-64
2022/07/13 07:09:44;;;;;;;;;;;;;;;23.75;33.63;99938.81;3152696;28;19936;-64
2022/07/13 07:11:15;;;;;;;;;;;;;;;23.77;33.98;99939.53;3152339;28;19939;-66
2022/07/13 07:12:47;;;;;;;;;;;;;;;23.79;33.58;99943.69;3152642;28;19936;-68
2022/07/13 07:14:18;;;;;;;;;;;;;;;23.78;33.65;99942.03;3152316;28;19939;-68
2022/07/13 07:15:52;;;;;;;;;;;;;;;23.78;33.55;99939.38;3152562;28;19927;-68
2022/07/13 07:17:23;;;;;;;;;;;;;;;23.79;33.32;99943.69;3154788;28;19943;-68
2022/07/13 07:18:55;;;;;;;;;;;;;;;23.84;33.10;99943.25;3154607;28;20425;-67
2022/07/13 07:20:27;;;;;;;;;;;;;;;23.91;33.26;99944.31;3154863;28;20290;-68
2022/07/13 07:21:58;;;;;;;;;;;;;;;24.00;33.50;99945.22;3154574;28;20016;-68
2022/07/13 07:23:30;;;;;;;;;;;;;;;24.09;33.21;99939.00;3154853;28;19936;-67
2022/07/13 07:25:01;;;;;;;;;;;;;;;24.16;32.62;99940.03;3154616;28;19992;-68
2022/07/13 07:26:32;;;;;;;;;;;;;;;24.26;32.39;99947.97;3154670;28;20973;-68
2022/07/13 07:28:04;;;;;;;;;;;;;;;24.28;32.14;99933.50;3154435;28;19932;-69
2022/07/13 07:29:36;;;;;;;;;;;;;;;24.29;32.39;99929.84;3154619;28;19982;-67
2022/07/13 07:31:09;;;;;;;;;;;;;;;24.38;31.97;99941.41;3154410;28;19989;-66
2022/07/13 07:32:41;;;;;;;;;;;;;;;24.45;31.58;99941.63;3154005;28;20023;-67
2022/07/13 07:34:13;;;;;;;;;;;;;;;24.48;31.34;99950.13;3153270;28;20015;-66
2022/07/13 07:35:45;;;;;;;;;;;;;;;24.47;31.38;99942.31;3154911;28;19938;-67
2022/07/13 07:37:17;;;;;;;;;;;;;;;24.52;31.58;99950.66;3154606;28;19928;-66
2022/07/13 07:38:48;;;;;;;;;;;;;;;24.59;31.37;99938.41;3154372;28;20455;-67
2022/07/13 07:40:20;;;;;;;;;;;;;;;24.69;30.72;99940.97;3154484;28;19943;-67
2022/07/13 07:41:52;;;;;;;;;;;;;;;24.80;31.04;99927.38;3154513;28;20175;-66
2022/07/13 07:43:23;;;;;;;;;;;;;;;24.92;30.79;99942.09;3153884;28;19934;-67
2022/07/13 07:44:56;;;;;;;;;;;;;;;25.05;30.68;99941.66;3154220;28;19928;-69
2022/07/13 07:46:29;;;;;;;;;;;;;;;25.17;30.59;99934.25;3154625;28;19971;-70
2022/07/13 07:48:01;;;;;;;;;;;;;;;25.21;29.32;99937.44;3154764;28;19928;-69
2022/07/13 07:49:34;;;;;;;;;;;;;;;25.24;29.44;99942.47;3154319;28;19979;-69
2022/07/13 07:51:05;;;;;;;;;;;;;;;25.28;29.22;99931.31;3154404;28;20021;-69
2022/07/13 07:52:38;;;;;;;;;;;;;;;25.32;29.21;99930.00;3154142;28;19931;-69
2022/07/13 07:54:10;;;;;;;;;;;;;;;25.43;29.13;99934.19;3154620;28;19928;-69
2022/07/13 07:55:41;;;;;;;;;;;;;;;25.53;29.35;99934.91;3155754;28;19936;-69
2022/07/13 07:57:14;;;;;;;;;;;;;;;25.64;29.49;99937.25;3154693;28;20385;-74
2022/07/13 07:58:45;;;;;;;;;;;;;;;25.80;29.61;99943.63;3150588;28;20047;-71